Time;durP1;ratioP1;P1;durP2;ratioP2;P2;SDS_P1;SDS_P2;PMS_P1;PMS_P2;Temp;Humidity;BMP_temperature;BMP_pressure;BME280_temperature;BME280_humidity;BME280_pressure;Samples;Min_cycle;Max_cycle;Signal;HPM_P1;HPM_P2
2023/05/01 00:01:19;;;;;;;8.07;5.10;;;6.00;99.90;;;;;;5018902;28;20033;-78
2023/05/01 00:03:45;;;;;;;7.53;5.38;;;6.00;99.90;;;;;;5033806;28;20041;-79
2023/05/01 00:06:10;;;;;;;7.90;5.35;;;6.00;99.90;;;;;;5018355;28;20032;-78
2023/05/01 00:08:36;;;;;;;7.22;5.22;;;5.90;99.90;;;;;;5031805;28;20061;-79
2023/05/01 00:11:08;;;;;;;7.05;4.88;;;5.90;99.90;;;;;;5021906;28;20048;-78
2023/05/01 00:13:40;;;;;;;10.23;5.72;;;5.90;99.90;;;;;;5034728;28;20021;-77
2023/05/01 00:16:10;;;;;;;7.15;5.10;;;5.80;99.90;;;;;;5032695;28;20079;-77
2023/05/01 00:18:36;;;;;;;9.98;5.40;;;5.80;99.90;;;;;;5012867;28;20021;-77
2023/05/01 00:23:32;;;;;;;6.60;5.15;;;5.70;99.90;;;;;;5005067;28;20053;-64
2023/05/01 00:25:57;;;;;;;5.85;5.05;;;5.70;99.90;;;;;;5009796;28;20396;-63
2023/05/01 00:28:23;;;;;;;8.40;5.45;;;5.70;99.90;;;;;;5008752;28;20105;-63
2023/05/01 00:30:49;;;;;;;10.40;5.20;;;5.60;99.90;;;;;;5008740;28;20034;-63
2023/05/01 00:33:15;;;;;;;6.45;4.82;;;5.60;99.90;;;;;;5009810;28;20030;-64
2023/05/01 00:35:43;;;;;;;7.45;5.75;;;5.60;99.90;;;;;;5009074;28;20720;-63
2023/05/01 00:38:09;;;;;;;8.27;5.05;;;5.60;99.90;;;;;;5006245;28;20025;-62
2023/05/01 00:40:44;;;;;;;6.40;4.35;;;5.60;99.90;;;;;;5009588;28;20025;-63
2023/05/01 00:43:10;;;;;;;6.32;5.18;;;5.50;99.90;;;;;;4994297;28;20021;-63
2023/05/01 00:45:36;;;;;;;6.47;5.35;;;5.50;99.90;;;;;;4997456;28;20030;-63
2023/05/01 00:48:02;;;;;;;8.10;5.22;;;5.40;99.90;;;;;;5004100;28;20040;-63
2023/05/01 00:50:29;;;;;;;7.95;5.47;;;5.40;99.90;;;;;;5009239;28;20026;-64
2023/05/01 00:52:55;;;;;;;8.27;4.68;;;5.40;99.90;;;;;;5025344;23;20095;-54
2023/05/01 00:55:21;;;;;;;8.00;5.07;;;5.40;99.90;;;;;;5049358;28;20483;-56
2023/05/01 00:57:46;;;;;;;6.30;4.45;;;5.30;99.90;;;;;;5047146;28;20040;-53
2023/05/01 01:00:12;;;;;;;9.75;4.85;;;5.30;99.90;;;;;;5052109;28;20028;-55
2023/05/01 01:02:38;;;;;;;8.77;5.18;;;5.30;99.90;;;;;;5044075;28;20041;-56
2023/05/01 01:05:04;;;;;;;7.07;4.88;;;5.30;99.90;;;;;;5033301;28;20029;-56
2023/05/01 01:07:44;;;;;;;7.07;5.00;;;5.30;99.90;;;;;;5032001;28;20033;-57
2023/05/01 01:10:26;;;;;;;8.43;4.68;;;5.20;99.90;;;;;;5030340;28;20041;-56
2023/05/01 01:13:06;;;;;;;8.93;4.78;;;5.20;99.90;;;;;;5038164;28;20022;-55
2023/05/01 01:15:54;;;;;;;7.57;5.07;;;5.20;99.90;;;;;;5041069;28;20498;-57
2023/05/01 01:18:32;;;;;;;7.40;5.18;;;5.10;99.90;;;;;;5041454;28;20024;-56
2023/05/01 01:21:10;;;;;;;8.85;4.95;;;5.10;99.90;;;;;;5037759;28;20454;-56
2023/05/01 01:24:03;;;;;;;7.18;5.05;;;5.10;99.90;;;;;;5019767;28;20120;-54
2023/05/01 01:26:55;;;;;;;7.93;4.70;;;5.10;99.90;;;;;;5024072;28;20043;-55
2023/05/01 01:29:33;;;;;;;8.73;4.97;;;5.10;99.90;;;;;;5042961;28;20029;-56
2023/05/01 01:32:21;;;;;;;6.90;4.40;;;5.00;99.90;;;;;;5034559;28;20064;-58
2023/05/01 01:35:02;;;;;;;7.35;4.65;;;5.00;99.90;;;;;;5033244;28;20021;-56
2023/05/01 01:37:48;;;;;;;8.10;5.40;;;5.00;99.90;;;;;;5043112;28;20017;-54
2023/05/01 01:40:20;;;;;;;;;;;4.90;99.90;;;;;;5032253;28;20079;-54
2023/05/01 01:42:51;;;;;;;6.22;4.63;;;4.90;99.90;;;;;;5037277;28;19916;-54
2023/05/01 01:45:40;;;;;;;9.80;4.72;;;4.90;99.90;;;;;;5030331;28;20447;-55
2023/05/01 01:48:10;;;;;;;9.70;5.00;;;4.90;99.90;;;;;;5037413;28;20033;-55
2023/05/01 01:50:37;;;;;;;5.95;3.80;;;4.80;99.90;;;;;;5026244;28;20020;-52
2023/05/01 01:53:07;;;;;;;6.75;5.03;;;4.80;99.90;;;;;;5042804;28;20021;-53
2023/05/01 01:55:35;;;;;;;8.82;4.68;;;4.80;99.90;;;;;;5036837;28;20028;-56
2023/05/01 01:58:02;;;;;;;6.60;4.72;;;4.70;99.90;;;;;;5040623;28;20013;-53
2023/05/01 02:00:29;;;;;;;5.88;4.20;;;4.70;99.90;;;;;;5032562;28;20124;-55
2023/05/01 02:02:59;;;;;;;7.18;4.45;;;4.70;99.90;;;;;;5039783;28;20028;-55
2023/05/01 02:05:26;;;;;;;7.38;4.47;;;4.70;99.90;;;;;;5032258;28;20395;-56
2023/05/01 02:07:52;;;;;;;7.75;4.50;;;4.70;99.90;;;;;;5037239;28;20033;-55
2023/05/01 02:10:21;;;;;;;6.03;4.22;;;4.60;99.90;;;;;;5018644;28;20029;-54
2023/05/01 02:12:49;;;;;;;7.28;4.43;;;4.60;99.90;;;;;;5037285;28;20556;-55
2023/05/01 02:15:17;;;;;;;10.85;4.45;;;4.60;99.90;;;;;;5038689;28;20036;-53
2023/05/01 02:17:44;;;;;;;5.47;4.47;;;4.50;99.90;;;;;;5039182;28;20375;-56
2023/05/01 02:20:11;;;;;;;7.35;4.80;;;4.50;99.90;;;;;;5039357;28;20029;-57
2023/05/01 02:22:39;;;;;;;6.80;4.60;;;4.50;99.90;;;;;;5034645;28;20479;-53
2023/05/01 02:25:07;;;;;;;7.18;4.53;;;4.50;99.90;;;;;;5030805;28;20444;-55
2023/05/01 02:27:42;;;;;;;5.03;4.03;;;4.40;99.90;;;;;;5039722;28;20025;-52
2023/05/01 02:30:08;;;;;;;6.30;4.53;;;4.40;99.90;;;;;;5037878;28;20037;-53
2023/05/01 02:32:34;;;;;;;6.18;4.63;;;4.40;99.90;;;;;;5037010;28;20047;-53
2023/05/01 02:35:00;;;;;;;6.13;4.05;;;4.40;99.90;;;;;;5035784;28;20511;-53
2023/05/01 02:37:27;;;;;;;5.53;4.00;;;4.30;99.90;;;;;;5034365;28;20499;-52
2023/05/01 02:39:53;;;;;;;5.72;3.70;;;4.30;99.90;;;;;;5021022;28;20024;-53
2023/05/01 02:42:23;;;;;;;4.78;3.75;;;4.30;99.90;;;;;;5031696;28;20048;-52
2023/05/01 02:45:10;;;;;;;5.13;3.92;;;4.30;99.90;;;;;;5034148;28;20064;-53
2023/05/01 02:47:41;;;;;;;5.13;3.95;;;4.30;99.90;;;;;;5037819;28;20021;-58
2023/05/01 02:50:07;;;;;;;6.13;4.10;;;4.30;99.90;;;;;;5035116;28;20095;-52
2023/05/01 02:52:35;;;;;;;5.47;3.55;;;4.20;99.90;;;;;;5041202;28;20024;-56
2023/05/01 02:55:01;;;;;;;4.53;3.67;;;4.20;99.90;;;;;;5033530;28;20024;-57
2023/05/01 02:57:27;;;;;;;6.95;4.25;;;4.20;99.90;;;;;;5042447;28;20022;-56
2023/05/01 02:59:52;;;;;;;6.78;4.38;;;4.20;99.90;;;;;;5040624;28;20060;-53
2023/05/01 03:02:18;;;;;;;4.63;3.83;;;4.10;99.90;;;;;;5042550;28;20040;-53
2023/05/01 03:04:43;;;;;;;5.82;3.88;;;4.10;99.90;;;;;;5024112;28;20394;-55
2023/05/01 03:07:09;;;;;;;6.28;4.07;;;4.10;99.90;;;;;;5037842;28;20031;-52
2023/05/01 03:09:35;;;;;;;8.30;4.20;;;4.10;99.90;;;;;;5040835;28;20091;-55
2023/05/01 03:12:01;;;;;;;8.25;4.05;;;4.10;99.90;;;;;;5046632;28;20460;-56
2023/05/01 03:14:27;;;;;;;6.35;4.25;;;4.10;99.90;;;;;;5042697;28;20017;-53
2023/05/01 03:16:53;;;;;;;7.40;3.97;;;4.00;99.90;;;;;;5025529;28;20068;-55
2023/05/01 03:19:19;;;;;;;5.47;3.97;;;4.00;99.90;;;;;;5045879;28;20086;-56
2023/05/01 03:21:44;;;;;;;4.93;3.95;;;4.00;99.90;;;;;;5043590;28;20499;-55
2023/05/01 03:24:10;;;;;;;6.00;3.70;;;4.00;99.90;;;;;;5047033;28;20025;-54
2023/05/01 03:26:36;;;;;;;5.82;3.67;;;3.90;99.90;;;;;;5043139;28;20090;-55
2023/05/01 03:29:02;;;;;;;5.35;4.10;;;3.90;99.90;;;;;;5044146;28;20020;-56
2023/05/01 03:31:28;;;;;;;6.72;4.30;;;3.90;99.90;;;;;;5043249;28;20554;-54
2023/05/01 03:33:53;;;;;;;4.85;3.67;;;3.90;99.90;;;;;;5043461;28;20096;-54
2023/05/01 03:36:21;;;;;;;4.68;3.45;;;3.90;99.90;;;;;;5043496;28;20029;-57
2023/05/01 03:38:46;;;;;;;5.38;3.67;;;3.90;99.90;;;;;;5042594;28;20512;-56
2023/05/01 03:41:12;;;;;;;5.88;3.95;;;3.80;99.90;;;;;;5044404;28;20029;-53
2023/05/01 03:43:38;;;;;;;5.65;3.65;;;3.80;99.90;;;;;;5043463;28;20040;-55
2023/05/01 03:46:03;;;;;;;11.75;4.93;;;3.80;99.90;;;;;;5027705;28;20479;-53
2023/05/01 03:48:29;;;;;;;4.00;3.55;;;3.90;99.90;;;;;;5026800;28;20541;-56
2023/05/01 03:50:55;;;;;;;4.95;3.60;;;3.80;99.90;;;;;;5042527;28;20027;-57
2023/05/01 03:53:21;;;;;;;4.95;3.58;;;3.90;99.90;;;;;;5044514;28;20058;-55
2023/05/01 03:55:47;;;;;;;5.45;4.10;;;3.90;99.90;;;;;;5031076;28;20354;-52
2023/05/01 03:58:12;;;;;;;5.07;3.20;;;3.90;99.90;;;;;;5044574;28;20112;-56
2023/05/01 04:00:38;;;;;;;6.60;4.18;;;3.90;99.90;;;;;;5039525;28;20385;-56
2023/05/01 04:03:04;;;;;;;6.00;3.40;;;3.90;99.90;;;;;;5042919;28;20044;-56
2023/05/01 04:05:30;;;;;;;6.00;2.90;;;4.00;99.90;;;;;;5040396;28;20376;-54
2023/05/01 04:07:56;;;;;;;7.43;3.60;;;4.00;99.90;;;;;;5032719;28;20025;-54
2023/05/01 04:10:22;;;;;;;6.30;3.05;;;4.00;99.90;;;;;;5044916;28;20036;-58
2023/05/01 04:12:47;;;;;;;10.40;4.05;;;4.00;99.90;;;;;;5040962;28;20044;-55
2023/05/01 04:15:13;;;;;;;6.70;3.55;;;4.10;99.90;;;;;;5045634;28;20052;-53
2023/05/01 04:17:39;;;;;;;4.65;3.30;;;4.10;99.90;;;;;;5023042;28;20033;-54
2023/05/01 04:20:05;;;;;;;5.30;3.15;;;4.10;99.90;;;;;;5038990;28;20404;-52
2023/05/01 04:22:31;;;;;;;6.07;4.13;;;4.10;99.90;;;;;;5041872;28;20116;-56
2023/05/01 04:24:57;;;;;;;7.13;3.80;;;4.20;99.90;;;;;;5040235;28;20033;-52
2023/05/01 04:27:25;;;;;;;6.05;3.25;;;4.20;99.90;;;;;;5038538;28;20049;-56
2023/05/01 04:29:51;;;;;;;4.60;3.42;;;4.20;99.90;;;;;;5038503;28;20411;-55
2023/05/01 04:32:16;;;;;;;7.18;3.50;;;4.30;99.90;;;;;;5035139;28;20083;-55
2023/05/01 04:34:45;;;;;;;4.97;3.53;;;4.30;99.90;;;;;;5039516;28;20085;-54
2023/05/01 04:37:11;;;;;;;7.13;3.25;;;4.40;99.90;;;;;;5038397;28;20075;-56
2023/05/01 04:39:37;;;;;;;4.85;3.45;;;4.40;99.90;;;;;;5032708;28;20022;-54
2023/05/01 04:42:03;;;;;;;7.40;3.75;;;4.40;99.90;;;;;;5043220;28;20028;-57
2023/05/01 04:44:29;;;;;;;6.78;3.45;;;4.50;99.90;;;;;;5033254;28;20374;-54
2023/05/01 04:46:55;;;;;;;6.53;3.55;;;4.50;99.90;;;;;;5041081;28;20098;-56
2023/05/01 04:49:21;;;;;;;3.88;3.30;;;4.50;99.90;;;;;;5032780;28;20108;-57
2023/05/01 04:51:47;;;;;;;4.00;3.10;;;4.50;99.90;;;;;;5042210;28;20122;-56
2023/05/01 04:54:12;;;;;;;7.72;3.47;;;4.60;99.90;;;;;;5035282;28;20084;-52
2023/05/01 04:56:38;;;;;;;6.10;3.25;;;4.60;99.90;;;;;;5029568;28;20033;-52
2023/05/01 04:59:04;;;;;;;5.63;3.53;;;4.70;99.90;;;;;;5040660;28;20037;-56
2023/05/01 05:01:29;;;;;;;5.47;2.80;;;4.70;99.90;;;;;;5017770;28;20112;-54
2023/05/01 05:03:55;;;;;;;6.53;3.63;;;4.80;99.90;;;;;;5029904;28;20036;-54
2023/05/01 05:06:21;;;;;;;7.05;3.53;;;4.80;99.90;;;;;;5041274;28;20410;-56
2023/05/01 05:08:50;;;;;;;8.60;3.72;;;4.90;99.90;;;;;;5033370;28;20432;-56
2023/05/01 05:11:18;;;;;;;4.00;2.95;;;4.90;99.90;;;;;;5044035;28;20048;-54
2023/05/01 05:13:45;;;;;;;5.20;3.28;;;5.00;99.90;;;;;;5040500;28;20079;-53
2023/05/01 05:16:11;;;;;;;4.70;3.38;;;5.00;99.90;;;;;;5038874;28;20029;-53
2023/05/01 05:18:37;;;;;;;4.47;3.45;;;5.00;99.90;;;;;;5041738;28;20021;-56
2023/05/01 05:21:04;;;;;;;6.03;3.55;;;5.10;99.90;;;;;;5039464;28;20031;-53
2023/05/01 05:23:30;;;;;;;5.55;3.47;;;5.20;99.90;;;;;;5039930;28;20017;-52
2023/05/01 05:26:00;;;;;;;4.25;3.42;;;5.20;99.90;;;;;;5038111;28;20455;-56
2023/05/01 05:28:28;;;;;;;5.97;3.35;;;5.30;99.90;;;;;;5034293;28;20037;-54
2023/05/01 05:30:55;;;;;;;5.13;3.60;;;5.40;99.90;;;;;;5039249;28;20120;-54
2023/05/01 05:33:21;;;;;;;4.35;3.22;;;5.40;99.90;;;;;;5023949;28;20025;-54
2023/05/01 05:35:48;;;;;;;6.47;3.17;;;5.50;99.90;;;;;;5023145;28;20029;-54
2023/05/01 05:38:14;;;;;;;7.07;3.67;;;5.60;99.90;;;;;;5020006;28;20120;-54
2023/05/01 05:40:40;;;;;;;4.13;3.15;;;5.60;99.90;;;;;;5036527;28;20114;-52
2023/05/01 05:43:06;;;;;;;3.50;3.03;;;5.70;99.90;;;;;;5036357;28;20101;-52
2023/05/01 05:45:34;;;;;;;4.25;3.25;;;5.80;99.90;;;;;;5035503;28;20030;-53
2023/05/01 05:48:00;;;;;;;6.93;3.17;;;5.80;99.90;;;;;;5022964;28;20087;-53
2023/05/01 05:50:26;;;;;;;4.88;2.85;;;5.90;99.90;;;;;;5038627;28;20138;-52
2023/05/01 05:52:52;;;;;;;4.45;2.92;;;6.00;99.90;;;;;;5031911;28;20534;-52
2023/05/01 05:55:17;;;;;;;6.57;2.97;;;6.10;99.90;;;;;;5022409;28;20040;-54
2023/05/01 05:57:43;;;;;;;3.78;2.95;;;6.20;99.90;;;;;;5022359;28;20484;-59
2023/05/01 06:00:09;;;;;;;5.93;3.38;;;6.20;99.90;;;;;;5041563;28;20060;-52
2023/05/01 06:02:35;;;;;;;3.58;3.13;;;6.30;99.90;;;;;;5038850;28;20028;-55
2023/05/01 06:05:01;;;;;;;5.97;3.33;;;6.40;99.90;;;;;;5036672;28;20025;-52
2023/05/01 06:07:27;;;;;;;7.22;3.65;;;6.50;99.90;;;;;;5040675;28;20147;-53
2023/05/01 06:09:53;;;;;;;6.07;3.10;;;6.60;99.90;;;;;;5042086;28;20500;-52
2023/05/01 06:12:19;;;;;;;5.75;3.97;;;6.70;99.90;;;;;;5039378;28;20131;-51
2023/05/01 06:14:44;;;;;;;8.18;3.33;;;6.80;99.90;;;;;;5037968;28;20495;-51
2023/05/01 06:17:10;;;;;;;5.95;2.67;;;7.00;99.90;;;;;;5026345;28;20521;-56
2023/05/01 06:19:36;;;;;;;8.05;3.53;;;7.10;99.90;;;;;;5038258;28;20032;-57
2023/05/01 06:22:02;;;;;;;4.60;2.85;;;7.30;99.90;;;;;;5039073;28;20027;-53
2023/05/01 06:24:28;;;;;;;4.63;3.22;;;7.40;99.90;;;;;;5042254;28;20037;-55
2023/05/01 06:26:53;;;;;;;5.03;3.05;;;7.60;99.90;;;;;;5033851;28;20045;-57
2023/05/01 06:29:19;;;;;;;3.85;3.05;;;7.80;99.90;;;;;;5030609;28;20025;-55
2023/05/01 06:31:44;;;;;;;5.63;2.80;;;8.00;99.90;;;;;;5026005;28;20037;-55
2023/05/01 06:34:10;;;;;;;4.60;3.45;;;8.20;99.90;;;;;;5027844;28;20022;-55
2023/05/01 06:36:36;;;;;;;4.00;2.72;;;8.40;99.90;;;;;;5028989;28;20677;-56
2023/05/01 06:39:01;;;;;;;4.63;2.75;;;8.70;99.90;;;;;;5022533;28;20029;-53
2023/05/01 06:41:27;;;;;;;6.15;2.70;;;8.90;99.90;;;;;;5042028;28;20025;-56
2023/05/01 06:43:53;;;;;;;8.57;3.20;;;9.00;99.90;;;;;;5037290;28;20487;-58
2023/05/01 06:46:19;;;;;;;4.22;3.00;;;9.20;99.90;;;;;;5046728;28;20037;-55
2023/05/01 06:48:44;;;;;;;5.40;3.08;;;9.40;99.90;;;;;;5044639;28;20513;-55
2023/05/01 06:51:13;;;;;;;5.75;2.60;;;9.60;99.90;;;;;;5043497;28;20475;-53
2023/05/01 06:53:40;;;;;;;3.92;2.70;;;9.70;99.90;;;;;;5078225;22;20770;-65
2023/05/01 06:56:07;;;;;;;4.15;3.25;;;10.00;99.90;;;;;;5059795;28;20028;-65
2023/05/01 06:58:33;;;;;;;3.50;2.80;;;10.20;99.90;;;;;;5064260;28;20127;-65
2023/05/01 07:00:58;;;;;;;4.28;2.83;;;10.50;99.90;;;;;;5068504;28;20108;-65
2023/05/01 07:03:26;;;;;;;5.60;2.90;;;10.70;99.90;;;;;;5047501;28;20459;-65
2023/05/01 07:05:52;;;;;;;5.25;2.55;;;11.00;99.90;;;;;;5048444;28;20021;-63
2023/05/01 07:08:18;;;;;;;6.22;3.05;;;11.30;99.90;;;;;;5037434;28;20021;-66
2023/05/01 07:10:44;;;;;;;5.82;2.92;;;11.50;99.90;;;;;;5041220;28;20549;-66
2023/05/01 07:13:09;;;;;;;5.13;2.53;;;11.70;99.90;;;;;;5041548;28;20070;-65
2023/05/01 07:15:35;;;;;;;3.03;2.30;;;11.90;99.90;;;;;;5029801;28;20488;-65
2023/05/01 07:18:01;;;;;;;4.97;3.10;;;12.20;99.90;;;;;;5046592;28;20037;-65
2023/05/01 07:20:27;;;;;;;4.82;2.80;;;12.40;99.90;;;;;;5037738;28;20037;-65
2023/05/01 07:22:52;;;;;;;5.63;2.50;;;12.60;99.90;;;;;;5046270;28;20086;-64
2023/05/01 07:25:19;;;;;;;3.38;2.33;;;12.80;99.90;;;;;;5048006;28;20036;-65
2023/05/01 07:27:44;;;;;;;3.95;2.30;;;13.00;99.90;;;;;;5027438;28;20041;-65
2023/05/01 07:30:10;;;;;;;4.00;2.22;;;13.20;99.90;;;;;;5043040;28;20052;-66
2023/05/01 07:32:36;;;;;;;6.05;2.42;;;13.40;99.90;;;;;;5039073;28;20040;-64
2023/05/01 07:35:03;;;;;;;3.67;2.33;;;13.60;99.90;;;;;;5045681;28;20042;-66
2023/05/01 07:37:29;;;;;;;3.60;2.15;;;13.80;99.50;;;;;;5044564;28;20036;-65
2023/05/01 07:39:56;;;;;;;5.30;2.60;;;14.00;99.90;;;;;;5039469;28;20406;-65
2023/05/01 07:42:22;;;;;;;4.45;2.30;;;14.20;99.20;;;;;;5039195;28;20017;-65
2023/05/01 07:44:49;;;;;;;8.68;2.25;;;14.40;99.70;;;;;;5028534;28;20441;-66
2023/05/01 07:47:15;;;;;;;3.83;2.38;;;14.60;96.50;;;;;;5043625;28;20025;-65
2023/05/01 07:49:40;;;;;;;2.65;1.88;;;14.70;99.20;;;;;;5028469;28;20020;-64
2023/05/01 07:52:07;;;;;;;3.70;2.22;;;15.00;98.90;;;;;;5045266;28;20059;-64
2023/05/01 07:54:33;;;;;;;4.20;2.28;;;15.20;96.80;;;;;;5044912;28;20029;-64
2023/05/01 07:56:58;;;;;;;4.18;2.40;;;15.30;93.60;;;;;;5020084;28;20057;-64
2023/05/01 07:59:26;;;;;;;4.90;1.98;;;15.30;93.60;;;;;;5042318;28;20059;-64
2023/05/01 08:01:53;;;;;;;4.47;2.08;;;15.40;95.20;;;;;;5045564;28;20520;-65
2023/05/01 08:04:21;;;;;;;4.00;2.33;;;15.50;92.50;;;;;;5046328;28;20044;-64
2023/05/01 08:06:47;;;;;;;5.78;2.13;;;15.60;94.00;;;;;;5041891;28;20116;-64
2023/05/01 08:09:13;;;;;;;2.30;1.50;;;15.80;93.00;;;;;;5041892;28;20537;-64
2023/05/01 08:11:39;;;;;;;2.40;1.75;;;16.10;95.60;;;;;;5038008;28;20116;-65
2023/05/01 08:14:04;;;;;;;3.75;1.90;;;16.30;92.10;;;;;;5045422;28;20057;-64
2023/05/01 08:16:30;;;;;;;3.55;2.00;;;16.40;92.10;;;;;;5043097;28;20032;-61
2023/05/01 08:18:55;;;;;;;3.28;1.90;;;16.60;91.50;;;;;;5044555;28;20024;-64
2023/05/01 08:21:21;;;;;;;3.83;2.05;;;16.70;90.80;;;;;;5044306;28;20028;-64
2023/05/01 08:23:46;;;;;;;5.90;2.75;;;16.90;91.70;;;;;;5042684;28;20040;-63
2023/05/01 08:26:12;;;;;;;4.80;2.28;;;17.10;91.90;;;;;;5044687;28;20033;-64
2023/05/01 08:28:38;;;;;;;4.00;1.92;;;17.20;90.20;;;;;;5041969;28;20040;-65
2023/05/01 08:31:03;;;;;;;7.03;2.30;;;17.30;90.30;;;;;;5039999;28;20735;-64
2023/05/01 08:33:29;;;;;;;5.35;2.25;;;17.40;86.30;;;;;;5039664;28;20063;-64
2023/05/01 08:35:54;;;;;;;4.82;2.33;;;17.30;85.20;;;;;;5041187;28;20092;-63
2023/05/01 08:38:20;;;;;;;1.98;1.75;;;17.30;81.70;;;;;;5046512;28;20025;-63
2023/05/01 08:40:52;;;;;;;3.15;1.98;;;17.30;83.10;;;;;;5039875;28;20523;-63
2023/05/01 08:43:19;;;;;;;3.15;1.70;;;17.30;82.80;;;;;;5043141;28;20578;-64
2023/05/01 08:45:46;;;;;;;4.22;1.70;;;17.40;83.60;;;;;;5034302;28;20479;-64
2023/05/01 08:48:15;;;;;;;5.55;2.78;;;17.70;83.20;;;;;;5037902;28;20033;-64
2023/05/01 08:50:45;;;;;;;7.40;2.58;;;17.90;86.70;;;;;;5044987;28;20104;-65
2023/05/01 08:53:12;;;;;;;3.30;2.13;;;18.10;83.60;;;;;;5046001;28;20025;-63
2023/05/01 08:55:39;;;;;;;4.68;2.05;;;18.30;82.20;;;;;;5043368;28;20063;-63
2023/05/01 08:58:08;;;;;;;2.63;1.70;;;18.40;79.80;;;;;;5040006;28;20037;-64
2023/05/01 09:00:35;;;;;;;3.25;2.38;;;18.50;83.70;;;;;;5040679;28;20029;-63
2023/05/01 09:03:04;;;;;;;2.13;1.70;;;18.60;76.20;;;;;;5042749;28;20017;-64
2023/05/01 09:05:31;;;;;;;3.35;2.00;;;18.70;81.80;;;;;;5045162;28;20441;-63
2023/05/01 09:07:58;;;;;;;5.05;2.25;;;18.70;80.60;;;;;;5035290;28;20021;-64
2023/05/01 09:10:25;;;;;;;3.20;2.13;;;18.80;82.40;;;;;;5044656;28;20040;-63
2023/05/01 09:12:56;;;;;;;3.35;1.67;;;19.00;82.30;;;;;;5038062;28;20074;-63
2023/05/01 09:15:24;;;;;;;3.83;2.20;;;19.00;79.30;;;;;;5017154;28;20048;-63
2023/05/01 09:17:50;;;;;;;2.50;1.98;;;19.10;77.90;;;;;;5045718;28;20025;-64
2023/05/01 09:20:18;;;;;;;4.68;2.42;;;19.10;76.10;;;;;;5022372;28;20036;-61
2023/05/01 09:22:44;;;;;;;3.25;2.42;;;18.90;76.10;;;;;;5043441;28;20298;-63
2023/05/01 09:25:09;;;;;;;5.65;2.20;;;19.00;78.80;;;;;;5042769;28;20056;-64
2023/05/01 09:27:37;;;;;;;3.28;1.90;;;19.10;78.80;;;;;;5040918;28;20395;-61
2023/05/01 09:30:04;;;;;;;3.55;2.05;;;19.20;77.20;;;;;;5039711;28;20390;-62
2023/05/01 09:32:30;;;;;;;6.07;2.10;;;19.20;78.40;;;;;;5039854;28;20029;-61
2023/05/01 09:35:10;;;;;;;3.03;2.10;;;19.30;75.00;;;;;;5032254;28;20032;-61
2023/05/01 09:37:35;;;;;;;4.38;2.13;;;19.40;77.00;;;;;;5042373;28;20017;-61
2023/05/01 09:40:09;;;;;;;4.35;2.20;;;19.40;73.90;;;;;;5045099;28;20367;-61
2023/05/01 09:42:38;;;;;;;2.58;1.83;;;19.40;78.90;;;;;;5019379;28;20024;-62
2023/05/01 09:45:13;;;;;;;3.78;1.77;;;19.50;79.80;;;;;;5041218;28;20029;-60
2023/05/01 09:47:40;;;;;;;3.55;2.15;;;19.70;76.20;;;;;;5041651;28;20032;-61
2023/05/01 09:50:06;;;;;;;5.20;1.80;;;19.70;75.70;;;;;;5026302;28;20577;-62
2023/05/01 09:52:32;;;;;;;2.72;1.67;;;19.70;73.10;;;;;;5043149;28;20040;-61
2023/05/01 09:55:10;;;;;;;4.18;2.05;;;19.70;71.30;;;;;;5026675;28;20391;-61
2023/05/01 09:57:37;;;;;;;3.95;1.58;;;19.60;74.30;;;;;;5040875;28;20063;-60
2023/05/01 10:00:07;;;;;;;4.07;2.25;;;19.50;73.30;;;;;;5036082;28;20486;-61
2023/05/01 10:02:33;;;;;;;3.35;1.98;;;19.40;72.60;;;;;;5041845;28;20100;-61
2023/05/01 10:04:59;;;;;;;3.65;2.28;;;19.20;71.70;;;;;;5046172;28;20112;-61
2023/05/01 10:07:26;;;;;;;4.22;2.13;;;19.10;73.00;;;;;;5045984;28;20060;-60
2023/05/01 10:09:52;;;;;;;4.05;2.33;;;19.10;74.90;;;;;;5043770;28;20032;-60
2023/05/01 10:12:28;;;;;;;4.47;2.33;;;19.00;75.70;;;;;;5025978;28;20530;-62
2023/05/01 10:14:57;;;;;;;5.00;1.83;;;19.00;75.50;;;;;;5043430;28;20032;-65
2023/05/01 10:17:23;;;;;;;3.83;2.35;;;19.00;75.50;;;;;;5020450;28;20033;-67
2023/05/01 10:19:50;;;;;;;3.13;1.80;;;19.10;73.80;;;;;;5043389;28;20104;-67
2023/05/01 10:22:16;;;;;;;5.18;2.70;;;19.10;71.60;;;;;;5044715;28;20036;-67
2023/05/01 10:24:44;;;;;;;2.88;2.20;;;19.10;70.70;;;;;;5046130;28;20621;-65
2023/05/01 10:27:11;;;;;;;4.50;2.28;;;19.10;75.20;;;;;;5044395;28;20029;-65
2023/05/01 10:29:40;;;;;;;4.40;2.33;;;19.20;73.10;;;;;;5044656;28;20036;-65
2023/05/01 10:32:07;;;;;;;5.97;1.70;;;19.20;75.50;;;;;;5041696;28;20042;-65
2023/05/01 10:34:36;;;;;;;2.83;1.60;;;19.20;70.90;;;;;;5039998;28;20033;-65
2023/05/01 10:37:11;;;;;;;2.25;1.38;;;19.20;70.20;;;;;;5045924;28;20024;-65
2023/05/01 10:39:37;;;;;;;3.15;1.88;;;19.20;71.60;;;;;;5042208;28;20048;-65
2023/05/01 10:42:04;;;;;;;4.30;2.05;;;19.20;71.10;;;;;;5040047;28;20025;-65
2023/05/01 10:44:31;;;;;;;2.85;1.80;;;19.40;73.80;;;;;;5040597;28;20033;-65
2023/05/01 10:46:57;;;;;;;3.22;2.33;;;19.50;71.30;;;;;;5032166;28;20091;-64
2023/05/01 10:49:22;;;;;;;3.70;1.58;;;19.40;65.00;;;;;;5046742;28;20017;-63
2023/05/01 10:51:58;;;;;;;3.75;2.22;;;19.40;69.90;;;;;;5048367;28;20315;-65
2023/05/01 10:54:25;;;;;;;4.15;2.17;;;19.50;69.50;;;;;;5048188;28;20595;-64
2023/05/01 10:56:52;;;;;;;1.80;1.70;;;19.60;70.30;;;;;;5043053;28;20040;-63
2023/05/01 10:59:18;;;;;;;2.83;1.83;;;19.70;70.40;;;;;;5042081;28;20060;-66
2023/05/01 11:01:47;;;;;;;1.98;1.83;;;19.70;68.80;;;;;;5043493;28;20029;-65
2023/05/01 11:04:18;;;;;;;2.63;1.67;;;19.60;70.30;;;;;;5028775;28;20028;-66
2023/05/01 11:07:09;;;;;;;2.53;1.23;;;19.60;69.00;;;;;;5045062;28;20029;-66
2023/05/01 11:09:43;;;;;;;3.30;1.85;;;19.70;73.10;;;;;;5019812;28;20109;-65
2023/05/01 11:12:13;;;;;;;5.20;1.88;;;19.60;75.00;;;;;;5043709;28;20724;-65
2023/05/01 11:15:01;;;;;;;3.22;1.88;;;19.50;68.60;;;;;;5041641;28;20045;-66
2023/05/01 11:17:39;;;;;;;3.25;1.55;;;19.40;72.10;;;;;;5039271;28;20032;-64
2023/05/01 11:20:06;;;;;;;2.22;2.03;;;19.50;76.90;;;;;;5021124;28;20028;-65
2023/05/01 11:22:32;;;;;;;5.28;2.58;;;19.60;77.30;;;;;;5041832;28;20547;-65
2023/05/01 11:24:59;;;;;;;6.45;2.30;;;19.70;75.40;;;;;;5049688;28;20029;-65
2023/05/01 11:27:26;;;;;;;2.97;1.95;;;19.70;68.30;;;;;;5038676;28;20025;-64
2023/05/01 11:29:52;;;;;;;2.97;1.95;;;19.70;68.40;;;;;;5043709;28;20025;-66
2023/05/01 11:32:28;;;;;;;3.55;1.83;;;19.70;72.20;;;;;;5026818;28;20410;-66
2023/05/01 11:34:55;;;;;;;2.97;1.80;;;19.80;72.80;;;;;;5046395;28;20117;-66
2023/05/01 11:37:43;;;;;;;3.10;1.90;;;19.90;72.80;;;;;;5044183;28;20029;-66
2023/05/01 11:40:27;;;;;;;2.55;1.33;;;20.00;72.90;;;;;;5042734;28;20057;-65
2023/05/01 11:43:05;;;;;;;3.80;1.90;;;20.00;70.40;;;;;;5047287;28;20033;-66
2023/05/01 11:45:32;;;;;;;6.13;2.10;;;20.00;71.60;;;;;;5043670;28;20031;-65
2023/05/01 11:48:01;;;;;;;3.53;2.00;;;20.00;75.00;;;;;;5044354;28;20654;-65
2023/05/01 11:50:34;;;;;;;3.22;1.70;;;20.10;70.80;;;;;;5027477;28;20033;-64
2023/05/01 11:53:01;;;;;;;3.97;2.25;;;20.10;71.60;;;;;;5044674;28;20276;-65
2023/05/01 11:55:34;;;;;;;3.80;1.77;;;20.20;71.70;;;;;;5046127;28;20025;-66
2023/05/01 11:58:01;;;;;;;3.22;2.08;;;20.30;69.50;;;;;;5043010;28;20021;-66
2023/05/01 12:00:38;;;;;;;2.80;1.63;;;20.40;66.70;;;;;;5042476;28;20495;-66
2023/05/01 12:03:05;;;;;;;6.15;2.10;;;20.30;67.60;;;;;;5022758;28;20212;-67
2023/05/01 12:05:31;;;;;;;3.28;1.70;;;20.30;65.20;;;;;;5038160;28;20512;-67
2023/05/01 12:08:20;;;;;;;3.60;1.80;;;20.20;65.90;;;;;;5042951;28;20029;-66
2023/05/01 12:10:48;;;;;;;3.33;2.10;;;20.10;70.60;;;;;;5044089;28;20032;-65
2023/05/01 12:13:14;;;;;;;5.88;2.50;;;20.30;70.80;;;;;;5044723;28;20017;-66
2023/05/01 12:16:02;;;;;;;3.35;2.08;;;20.50;68.60;;;;;;5046416;28;20071;-66
2023/05/01 12:18:27;;;;;;;3.80;1.85;;;20.60;68.90;;;;;;5036059;28;20399;-62
2023/05/01 12:20:54;;;;;;;3.53;2.20;;;20.70;69.50;;;;;;5046167;28;20021;-69
2023/05/01 12:23:38;;;;;;;3.25;2.08;;;20.70;68.30;;;;;;5019624;28;20029;-68
2023/05/01 12:26:27;;;;;;;2.75;1.52;;;20.90;70.50;;;;;;5037807;28;20705;-67
2023/05/01 12:28:59;;;;;;;4.43;2.05;;;21.10;69.50;;;;;;5026886;28;20404;-67
2023/05/01 12:31:26;;;;;;;3.15;1.58;;;21.00;66.20;;;;;;5039567;28;20052;-67
2023/05/01 12:34:01;;;;;;;2.83;2.13;;;21.00;67.70;;;;;;5043144;28;20025;-65
2023/05/01 12:36:30;;;;;;;2.20;1.90;;;21.00;67.70;;;;;;5031504;28;20480;-64
2023/05/01 12:39:07;;;;;;;3.67;1.75;;;21.20;67.90;;;;;;5022355;28;20040;-66
2023/05/01 12:41:34;;;;;;;3.20;1.63;;;21.30;66.70;;;;;;5046290;28;20032;-66
2023/05/01 12:44:00;;;;;;;3.65;2.10;;;21.40;66.00;;;;;;5027405;28;20032;-65
2023/05/01 12:46:26;;;;;;;3.85;1.65;;;21.40;64.20;;;;;;5040860;28;20021;-65
2023/05/01 12:48:54;;;;;;;2.85;1.58;;;21.40;67.70;;;;;;5041672;28;20560;-66
2023/05/01 12:51:21;;;;;;;1.70;1.45;;;21.40;68.50;;;;;;5033678;28;20022;-65
2023/05/01 12:53:48;;;;;;;3.75;1.65;;;21.30;65.20;;;;;;5043868;28;20052;-65
2023/05/01 12:56:24;;;;;;;2.65;1.80;;;21.10;65.90;;;;;;5050391;23;20042;-54
2023/05/01 12:58:52;;;;;;;2.58;1.77;;;21.10;66.20;;;;;;5026893;28;20025;-52
2023/05/01 13:01:27;;;;;;;3.35;1.35;;;20.90;64.80;;;;;;5027881;28;20029;-53